createdAt,value
2019-02-10T00:00:43.497Z,3.50
2019-02-10T00:03:12.265Z,3.98
2019-02-10T00:05:41.047Z,3.90
2019-02-10T00:08:09.793Z,3.47
2019-02-10T00:10:38.510Z,3.80
2019-02-10T00:13:44.934Z,3.33
2019-02-10T00:16:18.692Z,3.65
2019-02-10T00:18:47.424Z,4.03
2019-02-10T00:21:16.158Z,3.72
2019-02-10T00:23:44.923Z,3.98
2019-02-10T00:26:13.625Z,3.87
2019-02-10T00:28:42.350Z,3.95
2019-02-10T00:31:11.059Z,3.45
2019-02-10T00:33:39.758Z,4.70
2019-02-10T00:36:08.486Z,4.10
2019-02-10T00:38:37.180Z,3.45
2019-02-10T00:41:05.882Z,4.25
2019-02-10T00:43:34.587Z,4.50
2019-02-10T00:46:03.312Z,3.58
2019-02-10T00:48:32.022Z,3.37
2019-02-10T00:51:00.860Z,3.65
2019-02-10T00:53:29.606Z,4.75
2019-02-10T00:55:58.302Z,4.50
2019-02-10T00:58:27.021Z,3.92
2019-02-10T01:00:55.830Z,4.37
2019-02-10T01:03:24.626Z,3.65
2019-02-10T01:05:53.414Z,4.12
2019-02-10T01:08:22.152Z,4.45
2019-02-10T01:10:50.860Z,5.22
2019-02-10T01:13:19.719Z,4.47
2019-02-10T01:15:48.454Z,3.80
2019-02-10T01:18:17.231Z,5.00
2019-02-10T01:20:46.087Z,4.83
2019-02-10T01:23:14.898Z,5.12
2019-02-10T01:25:43.626Z,4.42
2019-02-10T01:28:12.349Z,5.47
2019-02-10T01:30:41.065Z,5.25
2019-02-10T01:33:09.777Z,5.37
2019-02-10T01:35:38.574Z,4.53
2019-02-10T01:38:07.322Z,4.08
2019-02-10T01:40:36.100Z,4.80
2019-02-10T01:43:06.118Z,4.17
2019-02-10T01:45:34.830Z,4.17
2019-02-10T01:48:03.655Z,4.97
2019-02-10T01:50:32.361Z,4.47
2019-02-10T01:53:01.085Z,4.75
2019-02-10T01:55:29.812Z,4.72
2019-02-10T01:57:58.575Z,5.40
2019-02-10T02:00:27.289Z,4.85
2019-02-10T02:02:56.033Z,4.62
2019-02-10T02:05:24.859Z,4.92
2019-02-10T02:07:53.546Z,4.20
2019-02-10T02:10:22.286Z,4.00
2019-02-10T02:12:51.054Z,3.37
2019-02-10T02:15:21.051Z,3.62
2019-02-10T02:17:49.770Z,3.95
2019-02-10T02:20:18.502Z,3.55
2019-02-10T02:22:47.320Z,3.12
2019-02-10T02:25:16.036Z,3.05
2019-02-10T02:27:44.788Z,2.60
2019-02-10T02:30:14.899Z,2.58
2019-02-10T02:32:43.930Z,3.05
2019-02-10T02:35:12.641Z,2.87
2019-02-10T02:37:41.359Z,3.12
2019-02-10T02:40:11.446Z,3.05
2019-02-10T02:42:40.449Z,3.50
2019-02-10T02:45:10.611Z,3.08
2019-02-10T02:47:39.342Z,3.17
2019-02-10T02:50:09.555Z,4.10
2019-02-10T02:52:38.312Z,3.67
2019-02-10T02:55:07.501Z,4.00
2019-02-10T02:57:36.234Z,3.02
2019-02-10T03:00:05.125Z,3.27
2019-02-10T03:02:33.855Z,4.15
2019-02-10T03:05:02.568Z,3.47
2019-02-10T03:07:31.268Z,3.67
2019-02-10T03:09:59.978Z,4.47
2019-02-10T03:12:28.674Z,4.22
2019-02-10T03:14:57.450Z,4.35
2019-02-10T03:17:26.201Z,3.90
2019-02-10T03:19:54.923Z,3.30
2019-02-10T03:22:23.615Z,3.60
2019-02-10T03:24:52.327Z,3.90
2019-02-10T03:27:21.076Z,3.70
2019-02-10T03:29:49.774Z,3.58
2019-02-10T03:32:18.513Z,4.22
2019-02-10T03:34:47.236Z,4.15
2019-02-10T03:37:16.069Z,3.80
2019-02-10T03:39:44.872Z,2.85
2019-02-10T03:42:13.595Z,3.15
2019-02-10T03:44:42.293Z,2.30
2019-02-10T03:47:11.060Z,2.72
2019-02-10T03:49:39.817Z,2.17
2019-02-10T03:52:08.546Z,2.98
2019-02-10T03:54:37.321Z,2.10
2019-02-10T03:57:08.838Z,3.35
2019-02-10T03:59:37.634Z,2.65
2019-02-10T04:02:06.346Z,2.55
2019-02-10T04:04:35.204Z,2.37
2019-02-10T04:07:03.897Z,2.08
2019-02-10T04:09:32.683Z,2.47
2019-02-10T04:12:01.504Z,2.40
2019-02-10T04:14:32.269Z,2.55
2019-02-10T04:17:00.981Z,2.40
2019-02-10T04:19:29.850Z,2.90
2019-02-10T04:21:58.838Z,3.62
2019-02-10T04:24:27.768Z,3.72
2019-02-10T04:26:56.557Z,3.22
2019-02-10T04:29:25.275Z,2.90
2019-02-10T04:31:54.019Z,3.42
2019-02-10T04:34:23.023Z,3.35
2019-02-10T04:36:51.802Z,3.75
2019-02-10T04:39:20.678Z,2.92
2019-02-10T04:41:52.236Z,3.22
2019-02-10T04:44:21.002Z,3.25
2019-02-10T04:46:49.761Z,3.42
2019-02-10T04:49:19.811Z,3.83
2019-02-10T04:51:49.233Z,3.92
2019-02-10T04:54:19.591Z,4.42
2019-02-10T04:56:48.436Z,3.60
2019-02-10T04:59:17.350Z,3.92
2019-02-10T05:01:46.317Z,4.20
2019-02-10T05:04:15.289Z,4.35
2019-02-10T05:06:44.142Z,4.20
2019-02-10T05:09:15.650Z,4.62
2019-02-10T05:11:44.438Z,4.85
2019-02-10T05:14:13.380Z,4.92
2019-02-10T05:16:42.300Z,5.83
2019-02-10T05:19:12.437Z,6.30
2019-02-10T05:21:51.705Z,6.35
2019-02-10T05:24:20.637Z,6.00
2019-02-10T05:26:49.567Z,6.75
2019-02-10T05:29:20.295Z,7.10
2019-02-10T05:31:49.242Z,7.22
2019-02-10T05:34:18.136Z,8.33
2019-02-10T05:36:47.166Z,7.15
2019-02-10T05:39:17.291Z,9.00
2019-02-10T05:41:46.118Z,8.45
2019-02-10T05:44:14.941Z,9.40
2019-02-10T05:46:43.712Z,9.15
2019-02-10T05:49:13.350Z,9.50
2019-02-10T05:51:42.191Z,9.25
2019-02-10T05:54:10.946Z,9.10
2019-02-10T05:56:39.967Z,10.15
2019-02-10T05:59:08.698Z,11.38
2019-02-10T06:02:04.110Z,10.48
2019-02-10T06:04:35.246Z,11.85
2019-02-10T06:07:07.569Z,12.75
2019-02-10T06:09:36.354Z,12.73
2019-02-10T06:12:05.229Z,12.65
2019-02-10T06:14:34.166Z,13.32
2019-02-10T06:17:02.973Z,13.08
2019-02-10T06:19:33.351Z,13.30
2019-02-10T06:22:02.346Z,12.55
2019-02-10T06:24:31.252Z,13.98
2019-02-10T06:27:01.344Z,13.70
2019-02-10T06:29:30.089Z,13.18
2019-02-10T06:32:02.862Z,12.82
2019-02-10T06:34:48.499Z,13.25
2019-02-10T06:37:17.755Z,12.93
2019-02-10T06:39:46.540Z,14.00
2019-02-10T06:42:18.323Z,15.18
2019-02-10T06:44:47.648Z,14.73
2019-02-10T06:47:16.677Z,13.85
2019-02-10T06:50:06.217Z,14.28
2019-02-10T06:52:37.355Z,14.00
2019-02-10T06:55:08.046Z,15.05
2019-02-10T06:57:36.838Z,14.35
2019-02-10T07:00:24.711Z,14.05
2019-02-10T07:03:41.464Z,13.38
2019-02-10T07:06:14.797Z,14.20
2019-02-10T07:08:43.856Z,15.72
2019-02-10T07:11:12.869Z,14.85
2019-02-10T07:13:44.513Z,14.83
2019-02-10T07:16:58.428Z,15.23
2019-02-10T07:20:11.800Z,14.68
2019-02-10T07:23:25.023Z,15.20
2019-02-10T07:26:02.026Z,13.65
2019-02-10T07:29:14.803Z,11.60
2019-02-10T07:32:04.938Z,11.70
2019-02-10T07:35:22.312Z,10.50
2019-02-10T07:38:08.044Z,10.48
2019-02-10T07:41:49.923Z,9.78
2019-02-10T07:44:31.790Z,9.03
2019-02-10T07:47:29.908Z,9.08
2019-02-10T07:50:40.547Z,9.18
2019-02-10T07:53:38.636Z,9.33
2019-02-10T07:56:55.704Z,10.58
2019-02-10T07:59:53.039Z,10.63
2019-02-10T08:03:14.429Z,11.57
2019-02-10T08:05:56.789Z,10.93
2019-02-10T08:09:22.227Z,11.05
2019-02-10T08:12:06.414Z,5.35
2019-02-10T08:15:18.459Z,5.87
2019-02-10T08:18:28.886Z,5.37
2019-02-10T08:21:18.953Z,6.40
2019-02-10T08:24:16.409Z,6.62
2019-02-10T08:27:22.339Z,4.10
2019-02-10T08:30:05.782Z,3.60
2019-02-10T08:33:08.080Z,3.40
2019-02-10T08:36:23.886Z,2.45
2019-02-10T08:39:30.405Z,2.02
2019-02-10T08:42:11.050Z,2.35
2019-02-10T08:44:57.572Z,4.40
2019-02-10T08:48:01.191Z,10.60
2019-02-10T08:50:56.680Z,13.03
2019-02-10T08:53:40.849Z,16.57
2019-02-10T08:56:09.629Z,17.70
2019-02-10T08:58:38.545Z,17.82
2019-02-10T09:01:07.468Z,18.75
2019-02-10T09:03:38.376Z,18.62
2019-02-10T09:06:07.126Z,19.42
2019-02-10T09:08:35.934Z,17.55
2019-02-10T09:11:04.785Z,15.90
2019-02-10T09:13:35.735Z,16.05
2019-02-10T09:16:04.779Z,14.93
2019-02-10T09:18:33.673Z,13.03
2019-02-10T09:21:02.624Z,14.00
2019-02-10T09:23:31.662Z,13.03
2019-02-10T09:26:00.495Z,11.03
2019-02-10T09:28:29.458Z,8.83
2019-02-10T09:30:58.190Z,7.67
2019-02-10T09:33:26.986Z,6.75
2019-02-10T09:35:55.778Z,7.78
2019-02-10T09:38:24.555Z,8.48
2019-02-10T09:40:55.018Z,10.00
2019-02-10T09:43:23.722Z,11.05
2019-02-10T09:45:53.486Z,11.00
2019-02-10T09:48:22.318Z,11.35
2019-02-10T09:50:51.050Z,10.23
2019-02-10T09:53:19.865Z,12.03
2019-02-10T09:55:48.583Z,13.00
2019-02-10T09:58:17.394Z,13.38
2019-02-10T10:00:46.239Z,12.13
2019-02-10T10:03:14.981Z,11.55
2019-02-10T10:05:43.678Z,12.50
2019-02-10T10:08:12.547Z,11.57
2019-02-10T10:10:41.365Z,12.33
2019-02-10T10:13:10.163Z,13.13
2019-02-10T10:15:38.894Z,11.63
2019-02-10T10:18:07.626Z,12.35
2019-02-10T10:20:36.338Z,11.90
2019-02-10T10:23:05.308Z,9.63
2019-02-10T10:25:34.438Z,8.95
2019-02-10T10:28:03.203Z,7.28
2019-02-10T10:30:32.045Z,7.40
2019-02-10T10:33:00.787Z,5.45
2019-02-10T10:35:30.655Z,3.70
2019-02-10T10:37:59.390Z,3.50
2019-02-10T10:40:28.127Z,3.27
2019-02-10T10:42:57.011Z,3.55
2019-02-10T10:45:26.000Z,5.30
2019-02-10T10:47:54.844Z,7.08
2019-02-10T10:50:23.650Z,6.25
2019-02-10T10:52:52.633Z,7.17
2019-02-10T10:55:21.567Z,6.75
2019-02-10T10:57:50.424Z,5.53
2019-02-10T11:00:19.592Z,5.78
2019-02-10T11:02:48.454Z,5.15
2019-02-10T11:05:17.302Z,4.55
2019-02-10T11:07:46.100Z,3.95
2019-02-10T11:10:14.801Z,4.40
2019-02-10T11:12:43.591Z,4.60
2019-02-10T11:15:12.526Z,4.30
2019-02-10T11:17:41.335Z,3.17
2019-02-10T11:20:10.569Z,2.42
2019-02-10T11:22:39.536Z,2.20
2019-02-10T11:25:08.611Z,2.42
2019-02-10T11:27:39.046Z,1.75
2019-02-10T11:30:08.754Z,2.22
2019-02-10T11:32:37.610Z,2.20
2019-02-10T11:35:09.708Z,2.85
2019-02-10T11:37:40.778Z,2.80
2019-02-10T11:40:09.736Z,3.40
2019-02-10T11:42:38.955Z,3.42
2019-02-10T11:45:08.940Z,3.35
2019-02-10T11:47:37.751Z,2.40
2019-02-10T11:50:06.994Z,3.15
2019-02-10T11:52:35.718Z,2.50
2019-02-10T11:55:05.586Z,2.75
2019-02-10T11:57:34.507Z,2.02
2019-02-10T12:00:03.560Z,1.62
2019-02-10T12:02:37.775Z,1.70
2019-02-10T12:05:03.314Z,1.50
2019-02-10T12:07:32.296Z,1.50
2019-02-10T12:10:01.059Z,1.50
2019-02-10T12:12:29.825Z,1.60
2019-02-10T12:14:58.749Z,2.05
2019-02-10T12:17:27.696Z,1.82
2019-02-10T12:19:56.572Z,1.90
2019-02-10T12:22:25.416Z,1.87
2019-02-10T12:24:54.247Z,2.30
2019-02-10T12:27:22.994Z,2.95
2019-02-10T12:29:51.914Z,2.02
2019-02-10T12:32:20.942Z,2.90
2019-02-10T12:34:51.091Z,1.98
2019-02-10T12:37:19.854Z,1.87
2019-02-10T12:39:48.734Z,2.42
2019-02-10T12:42:17.903Z,1.70
2019-02-10T12:44:46.748Z,2.27
2019-02-10T12:47:16.469Z,1.90
2019-02-10T12:49:45.178Z,2.00
2019-02-10T12:52:14.027Z,2.20
2019-02-10T12:54:42.866Z,1.92
2019-02-10T12:57:11.645Z,1.47
2019-02-10T12:59:46.340Z,1.60
2019-02-10T13:02:15.158Z,2.08
2019-02-10T13:04:44.158Z,2.70
2019-02-10T13:07:12.966Z,2.58
2019-02-10T13:09:41.705Z,1.70
2019-02-10T13:12:10.410Z,1.50
2019-02-10T13:14:39.246Z,2.22
2019-02-10T13:17:08.122Z,2.10
2019-02-10T13:19:37.082Z,1.87
2019-02-10T13:22:05.842Z,2.33
2019-02-10T13:24:34.613Z,2.17
2019-02-10T13:27:03.488Z,1.70
2019-02-10T13:29:32.999Z,2.30
2019-02-10T13:32:01.848Z,2.40
2019-02-10T13:34:30.638Z,1.70
2019-02-10T13:36:59.573Z,5.45
2019-02-10T13:39:28.415Z,1.35
2019-02-10T13:41:56.006Z,1.70
2019-02-10T13:44:24.914Z,1.80
2019-02-10T13:46:53.741Z,1.55
2019-02-10T13:49:22.603Z,2.10
2019-02-10T13:51:52.750Z,2.22
2019-02-10T13:54:21.670Z,2.25
2019-02-10T13:56:50.648Z,2.20
2019-02-10T13:59:19.362Z,2.62
2019-02-10T14:01:48.063Z,2.65
2019-02-10T14:04:16.798Z,2.90
2019-02-10T14:06:45.527Z,2.58
2019-02-10T14:09:14.274Z,3.02
2019-02-10T14:11:42.998Z,2.60
2019-02-10T14:14:11.889Z,3.12
2019-02-10T14:16:40.606Z,1.55
2019-02-10T14:19:09.336Z,2.05
2019-02-10T14:21:38.106Z,2.45
2019-02-10T14:24:06.851Z,1.98
2019-02-10T14:26:35.620Z,1.37
2019-02-10T14:29:04.979Z,1.20
2019-02-10T14:31:33.810Z,2.10
2019-02-10T14:34:03.458Z,1.47
2019-02-10T14:36:32.367Z,1.60
2019-02-10T14:39:01.481Z,1.62
2019-02-10T14:41:31.491Z,1.77
2019-02-10T14:44:00.201Z,2.10
2019-02-10T14:46:29.770Z,2.12
2019-02-10T14:48:58.549Z,2.75
2019-02-10T14:51:27.283Z,2.75
2019-02-10T14:53:56.055Z,2.52
2019-02-10T14:56:24.775Z,4.00
2019-02-10T14:58:54.401Z,2.50
2019-02-10T15:01:23.126Z,2.67
2019-02-10T15:03:51.850Z,2.77
2019-02-10T15:06:23.466Z,2.58
2019-02-10T15:08:53.006Z,1.35
2019-02-10T15:11:21.786Z,1.47
2019-02-10T15:13:53.570Z,1.30
2019-02-10T15:16:22.350Z,1.30
2019-02-10T15:18:51.147Z,1.57
2019-02-10T15:21:19.851Z,1.07
2019-02-10T15:23:48.571Z,0.90
2019-02-10T15:26:17.273Z,1.00
2019-02-10T15:28:45.971Z,0.98
2019-02-10T15:31:16.054Z,1.17
2019-02-10T15:33:44.791Z,1.20
2019-02-10T15:36:13.534Z,1.20
2019-02-10T15:38:42.274Z,1.27
2019-02-10T15:41:10.973Z,2.10
2019-02-10T15:43:39.759Z,2.12
2019-02-10T15:46:08.521Z,2.05
2019-02-10T15:48:39.767Z,1.87
2019-02-10T15:51:08.509Z,2.40
2019-02-10T15:53:37.345Z,2.80
2019-02-10T15:56:11.203Z,2.33
2019-02-10T15:58:40.018Z,1.60
2019-02-10T16:01:09.702Z,0.95
2019-02-10T16:03:38.454Z,0.85
2019-02-10T16:06:07.198Z,0.75
2019-02-10T16:08:35.946Z,1.12
2019-02-10T16:11:06.918Z,1.10
2019-02-10T16:13:35.607Z,0.98
2019-02-10T16:16:04.322Z,1.27
2019-02-10T16:18:34.560Z,1.10
2019-02-10T16:21:03.458Z,1.60
2019-02-10T16:23:32.302Z,1.70
2019-02-10T16:26:01.114Z,1.20
2019-02-10T16:28:29.849Z,0.90
2019-02-10T16:30:58.579Z,0.90
2019-02-10T16:33:27.410Z,1.52
2019-02-10T16:35:56.155Z,0.85
2019-02-10T16:38:25.008Z,1.20
2019-02-10T16:40:53.738Z,1.05
2019-02-10T16:43:22.466Z,1.12
2019-02-10T16:45:51.254Z,0.85
2019-02-10T16:48:19.982Z,0.88
2019-02-10T16:50:48.694Z,0.98
2019-02-10T16:53:17.382Z,0.80
2019-02-10T16:55:46.099Z,1.27
2019-02-10T16:58:14.803Z,1.00
2019-02-10T17:00:43.502Z,1.10
2019-02-10T17:03:12.222Z,1.10
2019-02-10T17:05:40.941Z,1.10
2019-02-10T17:08:10.830Z,1.25
2019-02-10T17:10:39.519Z,1.07
2019-02-10T17:13:08.256Z,1.02
2019-02-10T17:15:37.135Z,1.30
2019-02-10T17:18:05.834Z,1.17
2019-02-10T17:20:34.536Z,1.60
2019-02-10T17:23:03.243Z,2.47
2019-02-10T17:25:33.214Z,1.80
2019-02-10T17:28:01.971Z,1.80
2019-02-10T17:30:30.886Z,2.20
2019-02-10T17:32:59.578Z,2.08
2019-02-10T17:35:28.281Z,2.40
2019-02-10T17:38:00.026Z,2.37
2019-02-10T17:40:33.057Z,2.20
2019-02-10T17:43:06.886Z,2.27
2019-02-10T17:45:35.621Z,2.12
2019-02-10T17:48:04.337Z,2.50
2019-02-10T17:50:33.105Z,2.08
2019-02-10T17:53:01.815Z,3.30
2019-02-10T17:55:30.521Z,2.22
2019-02-10T17:57:59.278Z,2.33
2019-02-10T18:00:31.827Z,1.70
2019-02-10T18:03:00.583Z,2.40
2019-02-10T18:05:29.382Z,2.50
2019-02-10T18:07:58.106Z,2.15
2019-02-10T18:10:26.846Z,1.40
2019-02-10T18:12:55.588Z,1.92
2019-02-10T18:15:46.224Z,1.67
2019-02-10T18:18:40.250Z,1.95
2019-02-10T18:21:37.077Z,2.10
2019-02-10T18:24:16.481Z,1.47
2019-02-10T18:26:57.451Z,1.67
2019-02-10T18:29:45.496Z,2.37
2019-02-10T18:32:30.853Z,2.87
2019-02-10T18:35:27.705Z,2.30
2019-02-10T18:38:18.340Z,2.50
2019-02-10T18:40:55.289Z,2.45
2019-02-10T18:43:33.393Z,2.12
2019-02-10T18:46:09.179Z,2.33
2019-02-10T18:48:53.382Z,2.25
2019-02-10T18:51:59.422Z,2.67
2019-02-10T18:54:45.707Z,2.17
2019-02-10T18:57:42.178Z,2.72
2019-02-10T19:00:29.090Z,1.87
2019-02-10T19:03:06.907Z,2.87
2019-02-10T19:05:53.279Z,2.25
2019-02-10T19:08:31.714Z,2.10
2019-02-10T19:11:06.009Z,2.60
2019-02-10T19:13:42.306Z,2.00
2019-02-10T19:16:22.745Z,2.02
2019-02-10T19:19:09.539Z,1.92
2019-02-10T19:21:57.318Z,2.10
2019-02-10T19:24:51.482Z,2.40
2019-02-10T19:27:37.045Z,3.65
2019-02-10T19:30:21.226Z,2.72
2019-02-10T19:33:09.007Z,2.12
2019-02-10T19:35:55.694Z,2.08
2019-02-10T19:38:40.504Z,2.42
2019-02-10T19:41:43.326Z,2.20
2019-02-10T19:44:21.801Z,1.87
2019-02-10T19:46:59.489Z,1.92
2019-02-10T19:49:53.546Z,1.65
2019-02-10T19:52:40.094Z,2.25
2019-02-10T19:55:24.780Z,2.85
2019-02-10T19:58:15.499Z,2.12
2019-02-10T20:01:12.496Z,1.77
2019-02-10T20:04:03.066Z,2.15
2019-02-10T20:07:05.945Z,3.05
2019-02-10T20:10:02.434Z,2.58
2019-02-10T20:12:38.666Z,2.92
2019-02-10T20:15:23.131Z,2.50
2019-02-10T20:18:03.482Z,2.10
2019-02-10T20:20:39.078Z,1.80
2019-02-10T20:23:25.946Z,3.00
2019-02-10T20:26:32.211Z,2.33
2019-02-10T20:29:20.056Z,2.60
2019-02-10T20:32:08.031Z,2.60
2019-02-10T20:34:54.622Z,2.52
2019-02-10T20:37:30.918Z,2.85
2019-02-10T20:40:12.759Z,3.50
2019-02-10T20:43:00.585Z,3.37
2019-02-10T20:45:47.216Z,3.08
2019-02-10T20:48:47.501Z,3.77
2019-02-10T20:51:45.128Z,2.37
2019-02-10T20:54:51.177Z,2.42
2019-02-10T20:57:41.326Z,2.80
2019-02-10T21:00:30.204Z,2.87
2019-02-10T21:03:23.754Z,2.37
2019-02-10T21:06:20.465Z,3.00
2019-02-10T21:09:08.232Z,3.33
2019-02-10T21:11:59.421Z,2.83
2019-02-10T21:14:35.915Z,3.70
2019-02-10T21:17:17.082Z,3.12
2019-02-10T21:19:53.444Z,3.40
2019-02-10T21:22:35.497Z,4.17
2019-02-10T21:25:12.726Z,4.33
2019-02-10T21:27:51.574Z,3.47
2019-02-10T21:30:38.334Z,3.52
2019-02-10T21:33:29.254Z,4.40
2019-02-10T21:36:04.390Z,4.28
2019-02-10T21:39:01.541Z,4.12
2019-02-10T21:41:52.177Z,5.28
2019-02-10T21:44:30.389Z,4.47
2019-02-10T21:47:24.220Z,4.65
2019-02-10T21:49:53.007Z,3.90
2019-02-10T21:52:21.707Z,4.20
2019-02-10T21:54:50.406Z,3.90
2019-02-10T21:57:19.232Z,4.15
2019-02-10T21:59:47.934Z,4.05
2019-02-10T22:02:18.506Z,4.85
2019-02-10T22:04:47.341Z,3.58
2019-02-10T22:07:16.126Z,3.80
2019-02-10T22:09:44.951Z,3.75
2019-02-10T22:12:13.743Z,3.05
2019-02-10T22:14:42.466Z,2.90
2019-02-10T22:17:11.165Z,2.62
2019-02-10T22:19:39.908Z,3.27
2019-02-10T22:22:08.615Z,2.75
2019-02-10T22:24:37.329Z,2.55
2019-02-10T22:27:06.078Z,2.37
2019-02-10T22:29:34.790Z,2.70
2019-02-10T22:32:03.535Z,3.20
2019-02-10T22:34:32.322Z,2.65
2019-02-10T22:37:01.066Z,3.05
2019-02-10T22:39:29.806Z,2.70
2019-02-10T22:41:58.512Z,3.33
2019-02-10T22:44:27.281Z,3.27
2019-02-10T22:46:55.998Z,2.80
2019-02-10T22:49:24.724Z,4.20
2019-02-10T22:51:53.439Z,3.08
2019-02-10T22:54:22.248Z,3.37
2019-02-10T22:56:50.983Z,3.30
2019-02-10T22:59:19.697Z,2.42
2019-02-10T23:01:48.414Z,2.50
2019-02-10T23:04:17.138Z,1.80
2019-02-10T23:06:45.838Z,2.00
2019-02-10T23:09:24.188Z,1.22
2019-02-10T23:11:52.928Z,2.42
2019-02-10T23:14:21.628Z,2.72
2019-02-10T23:16:50.329Z,3.08
2019-02-10T23:19:19.940Z,3.20
2019-02-10T23:21:48.814Z,3.22
2019-02-10T23:24:17.522Z,4.03
2019-02-10T23:26:46.248Z,2.85
2019-02-10T23:29:14.949Z,3.50
2019-02-10T23:31:43.647Z,3.47
2019-02-10T23:34:12.381Z,2.87
2019-02-10T23:36:41.082Z,3.35
2019-02-10T23:39:09.818Z,2.40
2019-02-10T23:41:38.539Z,2.55
2019-02-10T23:44:07.242Z,2.65
2019-02-10T23:46:36.038Z,3.35
2019-02-10T23:49:04.802Z,3.70
2019-02-10T23:51:33.498Z,3.80
2019-02-10T23:54:02.413Z,2.60
2019-02-10T23:56:31.138Z,3.83
2019-02-10T23:58:59.831Z,3.85
